Time;durP1;ratioP1;P1;durP2;ratioP2;P2;SDS_P1;SDS_P2;PMS_P1;PMS_P2;Temp;Humidity;BMP_temperature;BMP_pressure;BME280_temperature;BME280_humidity;BME280_pressure;Samples;Min_cycle;Max_cycle;Signal;HPM_P1;HPM_P2
2023/01/27 00:00:12;;;;;;;31.05;16.48;;;-0.30;99.90;;;;;;489974;242;27524;-73
2023/01/27 00:02:14;;;;;;;29.35;15.48;;;-0.30;99.90;;;;;;489971;242;27540;-72
2023/01/27 00:04:15;;;;;;;29.35;16.23;;;-0.30;99.90;;;;;;489944;242;27514;-73
2023/01/27 00:06:16;;;;;;;34.78;17.55;;;-0.30;99.90;;;;;;489989;242;27603;-73
2023/01/27 00:08:17;;;;;;;34.47;17.10;;;-0.30;99.90;;;;;;489950;242;28010;-72
2023/01/27 00:10:19;;;;;;;39.28;20.37;;;-0.30;99.90;;;;;;489976;242;27991;-72
2023/01/27 00:14:40;;;;;;;30.50;16.62;;;-0.30;99.90;;;;;;490001;242;27475;-72
2023/01/27 00:16:41;;;;;;;32.47;17.30;;;-0.40;99.90;;;;;;489984;242;27535;-73
2023/01/27 00:18:42;;;;;;;31.40;16.52;;;-0.40;99.90;;;;;;489928;242;27619;-71
2023/01/27 00:25:23;;;;;;;33.67;17.87;;;-0.30;99.90;;;;;;489989;242;27508;-74
2023/01/27 00:27:26;;;;;;;36.20;17.08;;;-0.30;99.90;;;;;;489975;242;27462;-72
2023/01/27 00:29:25;;;;;;;31.75;16.92;;;-0.30;99.90;;;;;;489859;243;27592;-73
2023/01/27 00:33:48;;;;;;;31.40;17.08;;;-0.30;99.90;;;;;;489963;242;27578;-72
2023/01/27 00:35:47;;;;;;;33.38;16.67;;;-0.30;99.90;;;;;;489828;243;27996;-72
2023/01/27 00:37:49;;;;;;;29.12;15.63;;;-0.30;99.90;;;;;;489976;242;28655;-72
2023/01/27 00:39:50;;;;;;;27.75;16.98;;;-0.30;99.90;;;;;;489972;242;27514;-72
2023/01/27 00:41:51;;;;;;;33.72;17.48;;;-0.30;99.90;;;;;;489962;242;27493;-72
2023/01/27 00:43:52;;;;;;;29.60;16.23;;;-0.30;99.90;;;;;;489978;242;27489;-73
2023/01/27 00:45:55;;;;;;;32.15;17.20;;;-0.20;99.90;;;;;;489950;242;27582;-73
2023/01/27 00:47:55;;;;;;;34.10;17.60;;;-0.30;99.90;;;;;;489898;242;28012;-74
2023/01/27 00:49:56;;;;;;;34.67;16.95;;;-0.30;99.90;;;;;;489963;242;27931;-72
2023/01/27 00:51:57;;;;;;;33.58;17.45;;;-0.40;99.90;;;;;;489966;242;27528;-73
2023/01/27 00:54:01;;;;;;;33.65;17.70;;;-0.40;99.90;;;;;;489960;242;27470;-72
2023/01/27 00:56:00;;;;;;;33.60;17.17;;;-0.40;99.90;;;;;;489828;243;27505;-72
2023/01/27 00:58:01;;;;;;;35.05;17.75;;;-0.40;99.90;;;;;;490015;242;27591;-73
2023/01/27 01:00:02;;;;;;;28.35;16.50;;;-0.40;99.90;;;;;;489941;243;27505;-72
2023/01/27 01:02:04;;;;;;;32.05;16.60;;;-0.30;99.90;;;;;;489909;243;27984;-72
2023/01/27 01:04:05;;;;;;;30.62;17.10;;;-0.30;99.90;;;;;;489989;242;27459;-72
2023/01/27 01:06:06;;;;;;;34.55;17.40;;;-0.30;99.90;;;;;;489992;242;27610;-72
2023/01/27 01:08:07;;;;;;;35.13;16.27;;;-0.30;99.90;;;;;;489958;242;27488;-73
2023/01/27 01:10:09;;;;;;;29.00;14.40;;;-0.30;99.90;;;;;;489979;242;27513;-72
2023/01/27 01:12:10;;;;;;;28.48;14.10;;;-0.40;99.90;;;;;;489944;242;27512;-72
2023/01/27 01:14:11;;;;;;;37.00;16.20;;;-0.30;99.90;;;;;;489975;242;28722;-72
2023/01/27 01:16:13;;;;;;;25.37;13.60;;;-0.20;99.90;;;;;;490008;242;28010;-72
2023/01/27 01:18:14;;;;;;;35.00;16.33;;;-0.20;99.90;;;;;;489977;242;27500;-73
2023/01/27 01:20:15;;;;;;;38.60;16.70;;;-0.30;99.90;;;;;;490031;242;27485;-72
2023/01/27 01:22:16;;;;;;;23.50;12.40;;;-0.30;99.90;;;;;;489977;242;27611;-73
2023/01/27 01:24:18;;;;;;;20.20;12.43;;;-0.30;99.90;;;;;;489973;242;27508;-74
2023/01/27 01:26:19;;;;;;;20.80;11.70;;;-0.30;99.90;;;;;;489984;242;28032;-72
2023/01/27 01:28:20;;;;;;;21.15;11.32;;;-0.40;99.90;;;;;;490010;242;27979;-73
2023/01/27 01:30:25;;;;;;;19.17;11.20;;;-0.30;99.90;;;;;;489992;243;27560;-71
2023/01/27 01:32:23;;;;;;;22.62;12.68;;;-0.40;99.90;;;;;;489793;243;27513;-73
2023/01/27 01:34:24;;;;;;;18.98;11.48;;;-0.30;99.90;;;;;;490023;242;27847;-72
2023/01/27 01:36:25;;;;;;;23.55;12.40;;;-0.20;99.90;;;;;;490016;243;27485;-72
2023/01/27 01:38:26;;;;;;;20.85;11.85;;;-0.20;99.90;;;;;;490003;242;27513;-73
2023/01/27 01:40:28;;;;;;;19.23;11.43;;;-0.20;99.90;;;;;;490020;242;27987;-72
2023/01/27 01:42:29;;;;;;;22.17;12.60;;;-0.20;99.90;;;;;;490009;242;27599;-73
2023/01/27 01:44:30;;;;;;;18.12;11.40;;;-0.20;99.90;;;;;;489995;243;27500;-74
2023/01/27 01:46:31;;;;;;;28.60;13.35;;;-0.20;99.90;;;;;;489998;242;27584;-72
2023/01/27 01:48:33;;;;;;;24.23;13.90;;;-0.20;99.90;;;;;;490002;242;27618;-73
2023/01/27 01:50:34;;;;;;;22.20;11.82;;;-0.30;99.90;;;;;;489968;242;27584;-72
2023/01/27 01:52:35;;;;;;;25.17;13.20;;;-0.30;99.90;;;;;;489983;242;28004;-72
2023/01/27 01:54:37;;;;;;;22.25;11.82;;;-0.30;99.90;;;;;;489978;242;28024;-73
2023/01/27 01:56:38;;;;;;;22.30;12.18;;;-0.30;99.90;;;;;;489995;242;27561;-73
2023/01/27 01:58:39;;;;;;;23.70;13.18;;;-0.30;99.90;;;;;;489986;242;27504;-73
2023/01/27 02:00:40;;;;;;;19.58;10.68;;;-0.30;99.90;;;;;;489985;242;27584;-72
2023/01/27 02:02:41;;;;;;;19.20;11.98;;;-0.30;99.90;;;;;;490008;242;27499;-73
2023/01/27 02:04:43;;;;;;;18.37;10.57;;;-0.20;99.90;;;;;;489981;242;28053;-74
2023/01/27 02:06:44;;;;;;;20.65;11.38;;;-0.20;99.90;;;;;;490004;242;29028;-73
2023/01/27 02:08:45;;;;;;;22.37;11.32;;;-0.10;99.90;;;;;;490008;242;27591;-73
2023/01/27 02:10:47;;;;;;;20.60;11.75;;;-0.20;99.90;;;;;;489949;242;27456;-72
2023/01/27 02:12:48;;;;;;;19.98;11.35;;;-0.20;99.90;;;;;;489986;242;27584;-72
2023/01/27 02:14:49;;;;;;;16.25;9.20;;;-0.20;99.90;;;;;;489955;242;27873;-74
2023/01/27 02:16:50;;;;;;;19.37;10.00;;;-0.20;99.90;;;;;;490006;242;27556;-72
2023/01/27 02:18:52;;;;;;;17.37;9.68;;;-0.30;99.90;;;;;;489987;242;27977;-73
2023/01/27 02:20:54;;;;;;;20.40;11.20;;;-0.30;99.90;;;;;;489972;242;29168;-72
2023/01/27 02:22:54;;;;;;;24.17;10.80;;;-0.30;99.90;;;;;;489940;242;27589;-73
2023/01/27 02:24:55;;;;;;;19.33;10.98;;;-0.30;99.90;;;;;;490022;242;27512;-72
2023/01/27 02:26:57;;;;;;;17.77;10.32;;;-0.30;99.90;;;;;;489939;243;27472;-72
2023/01/27 02:28:58;;;;;;;25.75;11.38;;;-0.20;99.90;;;;;;490014;242;27587;-72
2023/01/27 02:30:59;;;;;;;17.33;10.73;;;-0.20;99.90;;;;;;489918;242;27999;-72
2023/01/27 02:33:01;;;;;;;24.40;11.80;;;-0.20;99.90;;;;;;490030;242;27474;-72
2023/01/27 02:35:02;;;;;;;20.15;10.80;;;-0.20;99.90;;;;;;489974;242;27588;-73
2023/01/27 02:37:03;;;;;;;24.02;12.48;;;-0.20;99.90;;;;;;489976;242;27500;-72
2023/01/27 02:39:04;;;;;;;24.85;12.93;;;-0.30;99.90;;;;;;489975;242;27969;-72
2023/01/27 02:41:06;;;;;;;22.52;12.68;;;-0.30;99.90;;;;;;489981;242;28685;-72
2023/01/27 02:43:07;;;;;;;30.98;13.77;;;-0.20;99.90;;;;;;489979;242;27450;-72
2023/01/27 02:45:08;;;;;;;24.20;13.10;;;-0.20;99.90;;;;;;490005;242;27500;-73
2023/01/27 02:47:09;;;;;;;17.42;10.13;;;-0.20;99.90;;;;;;489969;242;27471;-72
2023/01/27 02:49:11;;;;;;;31.52;14.40;;;-0.10;99.90;;;;;;489998;242;27512;-73
2023/01/27 02:51:12;;;;;;;33.00;14.07;;;-0.30;99.90;;;;;;489982;242;28127;-74
2023/01/27 02:53:13;;;;;;;25.85;13.38;;;-0.40;99.90;;;;;;489996;242;27990;-72
2023/01/27 02:55:14;;;;;;;27.90;14.48;;;-0.40;99.90;;;;;;489979;242;27556;-73
2023/01/27 02:57:16;;;;;;;20.62;11.65;;;-0.40;99.90;;;;;;489993;242;27556;-72
2023/01/27 02:59:17;;;;;;;33.80;14.38;;;-0.30;99.90;;;;;;489970;242;27496;-73
2023/01/27 03:01:18;;;;;;;23.05;12.37;;;-0.30;99.90;;;;;;490010;242;27884;-73
2023/01/27 03:03:19;;;;;;;19.90;11.05;;;-0.30;99.90;;;;;;489952;242;27539;-72
2023/01/27 03:05:21;;;;;;;30.62;13.55;;;-0.20;99.90;;;;;;489989;242;28076;-72
2023/01/27 03:07:22;;;;;;;33.95;15.02;;;-0.20;99.90;;;;;;490005;242;27555;-72
2023/01/27 03:09:23;;;;;;;25.58;12.57;;;-0.30;99.90;;;;;;489967;242;27526;-73
2023/01/27 03:13:44;;;;;;;22.58;13.43;;;-0.30;99.90;;;;;;489979;243;27561;-73
2023/01/27 03:18:11;;;;;;;31.70;13.13;;;-0.30;99.90;;;;;;489980;243;27512;-73
2023/01/27 03:20:12;;;;;;;23.17;12.07;;;-0.30;99.90;;;;;;489995;242;27468;-72
2023/01/27 03:22:13;;;;;;;29.48;12.93;;;-0.30;99.90;;;;;;489988;242;27547;-74
2023/01/27 03:24:14;;;;;;;21.85;11.85;;;-0.30;99.90;;;;;;489968;242;27512;-72
2023/01/27 03:26:15;;;;;;;27.17;12.37;;;-0.30;99.90;;;;;;489942;242;28055;-72
2023/01/27 03:28:17;;;;;;;20.88;11.60;;;-0.30;99.90;;;;;;489994;242;27516;-74
2023/01/27 03:30:18;;;;;;;22.98;11.98;;;-0.30;99.90;;;;;;489992;242;27524;-72
2023/01/27 03:32:19;;;;;;;28.38;12.48;;;-0.20;99.90;;;;;;490008;242;27517;-74
2023/01/27 03:34:20;;;;;;;24.30;11.93;;;-0.30;99.90;;;;;;489986;242;27592;-73
2023/01/27 03:48:00;;;;;;;24.15;11.70;;;-0.30;99.90;;;;;;489987;242;27598;-72
2023/01/27 03:50:01;;;;;;;21.73;10.68;;;-0.30;99.90;;;;;;489996;242;27474;-72
2023/01/27 03:52:02;;;;;;;18.52;10.90;;;-0.30;99.90;;;;;;489955;242;27607;-72
2023/01/27 03:54:03;;;;;;;20.62;10.32;;;-0.30;99.90;;;;;;489990;243;27614;-73
2023/01/27 03:56:05;;;;;;;16.08;8.80;;;-0.30;99.90;;;;;;490025;242;28028;-72
2023/01/27 03:58:19;;;;;;;11.95;7.60;;;-0.30;99.90;;;;;;489984;242;29155;-73
2023/01/27 04:00:19;;;;;;;15.38;8.75;;;-0.30;99.90;;;;;;489778;243;27513;-73
2023/01/27 04:07:01;;;;;;;7.70;6.20;;;-0.20;99.90;;;;;;489997;243;27480;-72
2023/01/27 04:09:01;;;;;;;9.55;6.25;;;-0.20;99.90;;;;;;489941;242;27472;-73
2023/01/27 04:13:22;;;;;;;9.95;5.90;;;-0.30;99.90;;;;;;489979;243;27649;-73
2023/01/27 04:15:23;;;;;;;9.95;6.00;;;-0.30;99.90;;;;;;489991;242;27519;-72
2023/01/27 04:17:24;;;;;;;10.27;6.25;;;-0.20;99.90;;;;;;489975;242;27517;-73
2023/01/27 04:19:26;;;;;;;9.80;7.30;;;-0.30;99.90;;;;;;489964;243;27544;-72
2023/01/27 04:21:27;;;;;;;9.43;5.85;;;-0.30;99.90;;;;;;489954;242;27494;-72
2023/01/27 04:23:28;;;;;;;9.40;6.90;;;-0.30;99.90;;;;;;489991;242;27500;-73
2023/01/27 04:25:29;;;;;;;10.02;6.57;;;-0.30;99.90;;;;;;489979;242;27472;-73
2023/01/27 04:27:31;;;;;;;10.40;6.72;;;-0.30;99.90;;;;;;489969;242;28095;-73
2023/01/27 04:29:33;;;;;;;10.75;6.57;;;-0.30;99.90;;;;;;489972;242;27964;-72
2023/01/27 04:31:34;;;;;;;9.50;6.28;;;-0.30;99.90;;;;;;489906;242;27520;-73
2023/01/27 04:33:34;;;;;;;8.85;5.50;;;-0.30;99.90;;;;;;489966;242;27645;-75
2023/01/27 04:35:36;;;;;;;10.73;6.55;;;-0.30;99.90;;;;;;489981;242;27472;-73
2023/01/27 04:37:37;;;;;;;10.93;6.68;;;-0.30;99.90;;;;;;489994;242;27512;-72
2023/01/27 04:39:40;;;;;;;10.93;6.35;;;-0.30;99.90;;;;;;489964;242;27530;-72
2023/01/27 04:41:39;;;;;;;10.43;7.15;;;-0.40;99.90;;;;;;489891;243;27496;-71
2023/01/27 04:43:41;;;;;;;9.10;6.57;;;-0.40;99.90;;;;;;489970;242;28082;-73
2023/01/27 04:45:42;;;;;;;12.52;7.40;;;-0.40;99.90;;;;;;489974;243;27941;-72
2023/01/27 04:47:43;;;;;;;11.80;6.55;;;-0.40;99.90;;;;;;489954;242;27519;-73
2023/01/27 04:49:45;;;;;;;10.15;6.70;;;-0.40;99.90;;;;;;489920;242;27472;-72
2023/01/27 04:51:46;;;;;;;8.73;6.05;;;-0.30;99.90;;;;;;489860;242;27536;-72
2023/01/27 04:53:47;;;;;;;14.00;7.25;;;-0.30;99.90;;;;;;489899;242;27510;-72
2023/01/27 04:55:48;;;;;;;9.90;6.40;;;-0.30;99.90;;;;;;489939;242;27630;-72
2023/01/27 04:57:50;;;;;;;15.02;6.80;;;-0.30;99.90;;;;;;489988;242;27572;-73
2023/01/27 04:59:51;;;;;;;13.98;6.87;;;-0.30;99.90;;;;;;489966;242;27985;-72
2023/01/27 05:01:52;;;;;;;9.43;6.53;;;-0.40;99.90;;;;;;489943;242;29064;-73
2023/01/27 05:03:53;;;;;;;10.05;6.93;;;-0.40;99.90;;;;;;489978;242;28368;-72
2023/01/27 05:05:55;;;;;;;10.15;6.20;;;-0.40;99.90;;;;;;489988;242;27468;-72
2023/01/27 05:07:56;;;;;;;7.57;5.75;;;-0.40;99.90;;;;;;490017;242;27496;-72
2023/01/27 05:09:57;;;;;;;9.73;7.18;;;-0.40;99.90;;;;;;490003;242;27457;-73
2023/01/27 05:11:58;;;;;;;10.25;6.20;;;-0.40;99.90;;;;;;489972;242;27528;-72
2023/01/27 05:14:00;;;;;;;9.52;7.00;;;-0.30;99.90;;;;;;489987;242;27496;-72
2023/01/27 05:16:01;;;;;;;10.65;6.85;;;-0.30;99.90;;;;;;489969;242;27474;-72
2023/01/27 05:18:02;;;;;;;10.13;6.60;;;-0.30;99.90;;;;;;489991;242;27973;-73
2023/01/27 05:20:03;;;;;;;7.53;5.78;;;-0.40;99.90;;;;;;489974;242;28109;-72
2023/01/27 05:22:05;;;;;;;9.77;6.20;;;-0.40;99.90;;;;;;489972;242;27508;-73
2023/01/27 05:24:06;;;;;;;9.60;6.22;;;-0.40;99.90;;;;;;489903;243;27508;-72
2023/01/27 05:26:07;;;;;;;9.00;6.45;;;-0.30;99.90;;;;;;490001;242;27469;-72
2023/01/27 05:28:08;;;;;;;11.98;6.50;;;-0.40;99.90;;;;;;489978;242;27504;-72
2023/01/27 05:30:10;;;;;;;9.30;6.57;;;-0.30;99.90;;;;;;489973;242;27485;-72
2023/01/27 05:32:11;;;;;;;9.38;6.10;;;-0.40;99.90;;;;;;489963;242;27561;-73
2023/01/27 05:34:12;;;;;;;8.15;5.90;;;-0.30;99.90;;;;;;489965;242;27521;-75
2023/01/27 05:36:13;;;;;;;9.20;6.45;;;-0.20;99.90;;;;;;489962;243;28001;-73
2023/01/27 05:38:15;;;;;;;9.95;6.75;;;-0.30;99.90;;;;;;489961;242;27987;-72
2023/01/27 05:40:16;;;;;;;12.57;7.18;;;-0.30;99.90;;;;;;489973;242;27919;-72
2023/01/27 05:42:17;;;;;;;9.63;7.05;;;-0.40;99.90;;;;;;489994;242;27583;-73
2023/01/27 05:44:18;;;;;;;10.40;6.80;;;-0.40;99.90;;;;;;489999;242;27509;-72
2023/01/27 05:46:20;;;;;;;14.70;6.95;;;-0.40;99.90;;;;;;489977;242;27452;-72
2023/01/27 05:48:21;;;;;;;10.93;6.80;;;-0.40;99.90;;;;;;490016;242;27535;-74
2023/01/27 05:50:22;;;;;;;11.07;6.78;;;-0.50;99.90;;;;;;489997;242;27465;-72
2023/01/27 05:52:23;;;;;;;11.65;7.10;;;-0.50;99.90;;;;;;489983;242;27530;-72
2023/01/27 05:54:25;;;;;;;10.57;6.85;;;-0.40;99.90;;;;;;490023;242;28032;-73
2023/01/27 05:56:26;;;;;;;11.32;7.43;;;-0.40;99.90;;;;;;490012;242;29045;-72
2023/01/27 05:58:27;;;;;;;10.02;7.20;;;-0.40;99.90;;;;;;489991;243;27608;-73
2023/01/27 06:00:28;;;;;;;12.57;6.95;;;-0.40;99.90;;;;;;489967;242;27548;-72
2023/01/27 06:02:30;;;;;;;11.00;7.40;;;-0.40;99.90;;;;;;489859;243;27498;-72
2023/01/27 06:04:31;;;;;;;12.68;7.62;;;-0.40;99.90;;;;;;489975;242;27883;-74
2023/01/27 06:06:32;;;;;;;13.48;8.13;;;-0.50;99.90;;;;;;490015;242;27477;-72
2023/01/27 06:08:33;;;;;;;11.98;7.93;;;-0.50;99.90;;;;;;490012;242;27992;-73
2023/01/27 06:10:36;;;;;;;12.60;7.30;;;-0.40;99.90;;;;;;490009;242;27971;-72
2023/01/27 06:12:36;;;;;;;9.88;6.90;;;-0.40;99.90;;;;;;489943;242;27543;-73
2023/01/27 06:14:37;;;;;;;11.12;7.72;;;-0.40;99.90;;;;;;489993;242;27607;-73
2023/01/27 06:16:38;;;;;;;11.00;7.68;;;-0.40;99.90;;;;;;490021;242;27479;-72
2023/01/27 06:18:40;;;;;;;11.32;6.68;;;-0.40;99.90;;;;;;490013;242;27496;-72
2023/01/27 06:20:41;;;;;;;10.50;7.45;;;-0.40;99.90;;;;;;485021;242;27473;-72
2023/01/27 06:22:42;;;;;;;12.68;7.32;;;-0.40;99.90;;;;;;473011;250;27467;-72
2023/01/27 06:24:44;;;;;;;12.48;7.50;;;-0.40;99.90;;;;;;472988;249;27991;-73
2023/01/27 06:26:45;;;;;;;12.20;7.37;;;-0.40;99.90;;;;;;473039;249;27882;-73
2023/01/27 06:28:46;;;;;;;12.18;8.40;;;-0.30;99.90;;;;;;473025;250;27563;-73
2023/01/27 06:30:47;;;;;;;15.60;9.13;;;-0.30;99.90;;;;;;472974;250;27482;-72
2023/01/27 06:32:49;;;;;;;9.75;7.57;;;-0.40;99.90;;;;;;473010;249;27459;-72
2023/01/27 06:34:50;;;;;;;10.38;6.95;;;-0.40;99.90;;;;;;472987;250;27867;-74
2023/01/27 06:36:51;;;;;;;11.88;8.73;;;-0.40;99.90;;;;;;472981;250;27415;-73
2023/01/27 06:38:52;;;;;;;9.75;7.10;;;-0.40;99.90;;;;;;472992;249;27535;-72
2023/01/27 06:40:54;;;;;;;9.60;6.62;;;-0.40;99.90;;;;;;472964;249;27460;-72
2023/01/27 06:42:55;;;;;;;10.95;7.80;;;-0.30;99.90;;;;;;472934;250;27974;-72
2023/01/27 06:44:56;;;;;;;15.15;8.35;;;-0.40;99.90;;;;;;472954;249;29039;-73
2023/01/27 06:46:57;;;;;;;15.07;11.00;;;-0.40;99.90;;;;;;472963;250;27419;-72
2023/01/27 06:48:59;;;;;;;16.05;10.02;;;-0.40;99.90;;;;;;472983;250;27463;-73
2023/01/27 06:51:00;;;;;;;14.50;8.65;;;-0.40;99.90;;;;;;472807;250;27511;-72
2023/01/27 06:53:01;;;;;;;14.75;8.70;;;-0.50;99.90;;;;;;472979;250;27480;-72
2023/01/27 06:55:02;;;;;;;15.20;8.02;;;-0.40;99.90;;;;;;473024;250;27466;-73
2023/01/27 06:57:04;;;;;;;13.45;8.65;;;-0.40;99.90;;;;;;473000;249;27988;-72
2023/01/27 06:59:05;;;;;;;16.98;9.23;;;-0.50;99.90;;;;;;472984;250;27938;-72
2023/01/27 07:01:06;;;;;;;15.43;8.43;;;-0.50;99.90;;;;;;472966;250;27412;-72
2023/01/27 07:03:07;;;;;;;17.80;8.43;;;-0.50;99.90;;;;;;472964;250;27523;-73
2023/01/27 07:05:09;;;;;;;14.73;8.57;;;-0.50;99.90;;;;;;472967;250;27543;-75
2023/01/27 07:07:10;;;;;;;14.32;9.13;;;-0.50;99.90;;;;;;472977;250;27507;-73
2023/01/27 07:09:11;;;;;;;15.18;8.77;;;-0.50;99.90;;;;;;472944;250;27483;-72
2023/01/27 07:11:12;;;;;;;12.45;8.00;;;-0.50;99.90;;;;;;472972;250;27498;-72
2023/01/27 07:13:14;;;;;;;16.17;9.15;;;-0.50;99.90;;;;;;472987;250;27996;-72
2023/01/27 07:15:15;;;;;;;15.93;9.15;;;-0.50;99.90;;;;;;472977;250;29164;-72
2023/01/27 07:17:16;;;;;;;16.17;8.95;;;-0.50;99.90;;;;;;473770;245;27407;-73
2023/01/27 07:19:18;;;;;;;13.10;8.43;;;-0.50;99.90;;;;;;480372;245;27484;-72
2023/01/27 07:21:19;;;;;;;14.50;9.18;;;-0.50;99.90;;;;;;486838;241;27432;-74
2023/01/27 07:23:20;;;;;;;15.95;9.93;;;-0.50;99.90;;;;;;488452;243;27920;-74
2023/01/27 07:25:21;;;;;;;18.73;9.85;;;-0.50;99.90;;;;;;486536;240;27853;-75
2023/01/27 07:27:23;;;;;;;15.52;9.30;;;-0.50;99.90;;;;;;471301;249;27649;-74
2023/01/27 07:29:24;;;;;;;15.70;9.20;;;-0.50;99.90;;;;;;467942;251;27480;-73
2023/01/27 07:31:25;;;;;;;15.63;8.98;;;-0.50;99.90;;;;;;467340;251;27411;-75
2023/01/27 07:33:26;;;;;;;17.00;9.23;;;-0.50;99.90;;;;;;465463;254;27469;-74
2023/01/27 07:35:28;;;;;;;21.80;10.52;;;-0.50;99.90;;;;;;465504;255;28026;-74
2023/01/27 07:37:29;;;;;;;13.68;8.40;;;-0.50;99.90;;;;;;465423;254;29715;-73
2023/01/27 07:39:30;;;;;;;18.02;9.95;;;-0.50;99.90;;;;;;465727;254;27469;-75
2023/01/27 07:41:31;;;;;;;16.00;8.65;;;-0.40;99.90;;;;;;465699;254;27466;-74
2023/01/27 07:43:33;;;;;;;15.90;8.85;;;-0.40;99.90;;;;;;465638;255;27488;-73
2023/01/27 07:45:34;;;;;;;14.90;8.32;;;-0.40;99.90;;;;;;465659;254;27457;-73
2023/01/27 07:47:35;;;;;;;14.00;8.77;;;-0.40;99.90;;;;;;468286;253;27556;-74
2023/01/27 07:49:36;;;;;;;12.93;7.82;;;-0.40;99.90;;;;;;469887;252;27429;-73
2023/01/27 07:51:38;;;;;;;12.75;8.35;;;-0.40;99.90;;;;;;469828;252;28067;-73
2023/01/27 07:53:39;;;;;;;16.15;9.02;;;-0.40;99.90;;;;;;469658;252;27927;-74
2023/01/27 07:55:40;;;;;;;17.08;8.68;;;-0.40;99.90;;;;;;469708;252;27459;-72
2023/01/27 07:57:42;;;;;;;16.30;8.10;;;-0.40;99.90;;;;;;469832;252;27472;-75
2023/01/27 07:59:43;;;;;;;12.15;7.93;;;-0.40;99.90;;;;;;469724;252;27563;-75
2023/01/27 08:01:44;;;;;;;12.37;8.35;;;-0.50;99.90;;;;;;469841;253;27565;-73
2023/01/27 08:03:45;;;;;;;14.68;8.02;;;-0.40;99.90;;;;;;469855;252;27472;-72
2023/01/27 08:05:47;;;;;;;11.85;7.10;;;-0.40;99.90;;;;;;469784;253;27489;-73
2023/01/27 08:07:48;;;;;;;12.27;7.45;;;-0.40;99.90;;;;;;469864;253;28018;-75
2023/01/27 08:09:49;;;;;;;13.85;8.50;;;-0.40;99.90;;;;;;469693;252;27982;-73
2023/01/27 08:11:50;;;;;;;14.13;7.57;;;-0.40;99.90;;;;;;468889;253;27575;-73
2023/01/27 08:13:52;;;;;;;11.18;7.57;;;-0.30;99.90;;;;;;468876;253;27511;-73
2023/01/27 08:15:53;;;;;;;12.15;7.05;;;-0.20;99.90;;;;;;468982;253;27761;-73
2023/01/27 08:17:54;;;;;;;11.43;7.40;;;-0.30;99.90;;;;;;468903;253;28008;-74
2023/01/27 08:19:55;;;;;;;10.07;7.87;;;-0.20;99.90;;;;;;469003;253;27519;-74
2023/01/27 08:21:57;;;;;;;36.63;8.07;;;-0.20;99.90;;;;;;468955;253;27990;-75
2023/01/27 08:23:58;;;;;;;10.68;6.75;;;-0.30;99.90;;;;;;468763;253;28781;-74
2023/01/27 08:25:59;;;;;;;11.77;7.28;;;-0.30;99.90;;;;;;470595;249;28006;-73
2023/01/27 08:28:00;;;;;;;12.30;6.57;;;-0.20;99.90;;;;;;468455;252;27664;-73
2023/01/27 08:30:02;;;;;;;12.82;7.07;;;-0.20;99.90;;;;;;475357;250;27377;-73
2023/01/27 08:32:03;;;;;;;11.75;6.75;;;-0.20;99.90;;;;;;475294;250;27612;-73
2023/01/27 08:34:04;;;;;;;13.07;7.85;;;-0.20;99.90;;;;;;475200;250;27483;-74
2023/01/27 08:36:05;;;;;;;10.50;6.90;;;-0.30;99.90;;;;;;477873;236;28137;-73
2023/01/27 08:38:07;;;;;;;14.52;8.50;;;-0.30;99.90;;;;;;485925;244;28243;-73
2023/01/27 08:40:08;;;;;;;10.65;7.07;;;-0.30;99.90;;;;;;481541;245;27568;-73
2023/01/27 08:42:09;;;;;;;9.48;6.45;;;-0.30;99.90;;;;;;487272;240;27471;-75
2023/01/27 08:44:10;;;;;;;9.70;5.95;;;-0.30;99.90;;;;;;474346;249;27589;-74
2023/01/27 08:46:12;;;;;;;7.87;6.03;;;-0.30;99.90;;;;;;471507;252;27831;-74
2023/01/27 08:48:13;;;;;;;8.90;6.22;;;-0.30;99.90;;;;;;474384;248;27580;-74
2023/01/27 08:50:14;;;;;;;8.60;5.93;;;-0.30;99.90;;;;;;465158;252;27463;-73
2023/01/27 08:52:15;;;;;;;9.80;6.03;;;-0.20;99.90;;;;;;479998;247;27535;-73
2023/01/27 08:54:17;;;;;;;6.72;5.68;;;-0.10;99.90;;;;;;474558;249;28124;-74
2023/01/27 08:56:18;;;;;;;8.63;5.75;;;-0.10;99.90;;;;;;473352;250;28129;-74
2023/01/27 08:58:19;;;;;;;8.23;5.62;;;-0.10;99.90;;;;;;473491;249;27552;-74
2023/01/27 09:00:21;;;;;;;7.95;6.18;;;0.00;99.90;;;;;;473359;249;27971;-74
2023/01/27 09:02:23;;;;;;;8.35;5.80;;;0.00;99.90;;;;;;471640;249;27938;-74
2023/01/27 09:04:23;;;;;;;8.07;5.80;;;0.10;99.90;;;;;;470339;253;27938;-75
2023/01/27 09:06:24;;;;;;;5.75;4.65;;;0.20;99.90;;;;;;474210;236;28071;-74
2023/01/27 09:08:26;;;;;;;9.70;7.47;;;0.30;99.90;;;;;;472719;249;28124;-74
2023/01/27 09:10:27;;;;;;;7.40;6.10;;;0.30;99.90;;;;;;478831;247;27498;-73
2023/01/27 09:12:28;;;;;;;7.15;5.57;;;0.30;99.90;;;;;;472711;251;27523;-74
2023/01/27 09:14:29;;;;;;;7.55;5.70;;;0.40;99.90;;;;;;473173;251;27665;-74
2023/01/27 09:16:31;;;;;;;7.57;5.90;;;0.40;99.90;;;;;;476818;242;27488;-74
2023/01/27 09:18:32;;;;;;;7.65;4.80;;;0.30;99.90;;;;;;480037;246;27401;-74
2023/01/27 09:20:35;;;;;;;7.22;5.12;;;0.20;99.90;;;;;;486921;244;28079;-74
2023/01/27 09:22:35;;;;;;;9.25;5.30;;;0.20;99.90;;;;;;486846;244;27990;-74
2023/01/27 09:24:36;;;;;;;6.32;5.37;;;0.20;99.90;;;;;;487204;244;27988;-74
2023/01/27 09:26:37;;;;;;;9.15;5.45;;;0.20;99.90;;;;;;487219;241;27912;-73
2023/01/27 09:28:38;;;;;;;7.05;4.50;;;0.20;99.90;;;;;;485913;244;36617;-74
2023/01/27 09:30:39;;;;;;;7.90;5.65;;;0.20;99.90;;;;;;487317;244;27440;-76
2023/01/27 09:32:41;;;;;;;7.47;5.00;;;0.30;99.90;;;;;;487356;244;27401;-74
2023/01/27 09:34:42;;;;;;;7.47;5.40;;;0.30;99.90;;;;;;487312;244;27528;-74
2023/01/27 09:36:43;;;;;;;6.12;4.60;;;0.30;99.90;;;;;;487337;244;27430;-74
2023/01/27 09:38:44;;;;;;;6.07;4.90;;;0.30;99.90;;;;;;487393;244;27896;-75
2023/01/27 09:40:46;;;;;;;8.45;6.25;;;0.30;99.90;;;;;;487304;244;27928;-74
2023/01/27 09:42:47;;;;;;;9.70;7.70;;;0.30;99.90;;;;;;487402;244;27991;-73
2023/01/27 09:44:48;;;;;;;8.15;5.93;;;0.30;99.90;;;;;;487399;244;28090;-74
2023/01/27 09:46:49;;;;;;;8.32;5.93;;;0.40;99.90;;;;;;487317;244;27460;-74
2023/01/27 09:48:51;;;;;;;7.18;4.87;;;0.50;99.90;;;;;;487370;244;27436;-74
2023/01/27 09:50:52;;;;;;;6.35;5.03;;;0.50;99.90;;;;;;487354;244;27513;-73
2023/01/27 09:52:53;;;;;;;8.50;5.28;;;0.50;99.90;;;;;;487327;244;27397;-74
2023/01/27 09:54:54;;;;;;;6.30;5.22;;;0.30;99.90;;;;;;487378;244;27444;-74
2023/01/27 09:56:56;;;;;;;7.53;5.50;;;0.40;99.90;;;;;;487415;244;28704;-74
2023/01/27 09:58:57;;;;;;;9.55;5.70;;;0.40;99.90;;;;;;487331;244;27845;-74
2023/01/27 10:00:58;;;;;;;7.10;5.00;;;0.50;99.90;;;;;;487387;244;28915;-74
2023/01/27 10:02:59;;;;;;;7.37;5.47;;;0.50;99.90;;;;;;487344;244;27749;-74
2023/01/27 10:05:01;;;;;;;7.82;6.10;;;0.60;99.90;;;;;;487309;244;27357;-73
2023/01/27 10:07:02;;;;;;;7.07;5.47;;;0.60;99.90;;;;;;480329;234;27399;-74
2023/01/27 10:09:03;;;;;;;8.13;5.70;;;0.50;99.90;;;;;;482895;241;27484;-76
2023/01/27 10:11:04;;;;;;;8.82;6.15;;;0.50;99.90;;;;;;477561;249;27617;-74
2023/01/27 10:13:06;;;;;;;10.30;6.70;;;0.50;99.90;;;;;;477776;248;27518;-74
2023/01/27 10:15:07;;;;;;;9.68;5.55;;;0.50;99.90;;;;;;461731;253;27476;-74
2023/01/27 10:17:08;;;;;;;9.82;6.30;;;0.60;99.90;;;;;;483283;246;27391;-73
2023/01/27 10:19:09;;;;;;;11.60;6.95;;;0.60;99.90;;;;;;483528;241;27382;-74
2023/01/27 10:21:11;;;;;;;11.27;6.18;;;0.50;99.90;;;;;;483474;244;27934;-75
2023/01/27 10:23:12;;;;;;;8.98;5.80;;;0.50;99.90;;;;;;483555;241;27961;-74
2023/01/27 10:25:13;;;;;;;7.82;5.45;;;0.60;99.90;;;;;;483524;244;29014;-74
2023/01/27 10:27:15;;;;;;;10.48;6.70;;;0.70;99.90;;;;;;483435;244;27425;-74
2023/01/27 10:29:16;;;;;;;8.00;5.68;;;0.70;99.90;;;;;;483438;245;27420;-73
2023/01/27 10:31:17;;;;;;;7.50;5.15;;;0.80;99.90;;;;;;483568;245;27511;-74
2023/01/27 10:33:19;;;;;;;15.20;5.30;;;0.70;99.90;;;;;;483473;244;27388;-74
2023/01/27 10:35:20;;;;;;;9.30;5.45;;;0.50;99.90;;;;;;483507;244;27414;-73
2023/01/27 10:37:22;;;;;;;8.43;5.22;;;0.40;99.90;;;;;;483573;244;27544;-76
2023/01/27 10:39:23;;;;;;;8.23;5.62;;;0.50;99.90;;;;;;482009;245;27445;-75
2023/01/27 10:41:25;;;;;;;9.40;6.05;;;0.60;99.90;;;;;;478035;249;27492;-75
2023/01/27 10:43:26;;;;;;;9.57;7.10;;;0.60;99.90;;;;;;478038;246;28220;-75
2023/01/27 10:45:27;;;;;;;21.55;15.60;;;0.50;99.90;;;;;;477995;249;28191;-76
2023/01/27 10:47:29;;;;;;;11.07;8.20;;;0.50;99.90;;;;;;462247;257;27433;-75
2023/01/27 10:49:30;;;;;;;9.63;7.40;;;0.40;99.90;;;;;;478052;249;28009;-74
2023/01/27 10:51:31;;;;;;;9.57;6.57;;;0.40;99.90;;;;;;477934;249;27557;-75
2023/01/27 10:53:32;;;;;;;9.15;6.45;;;0.50;99.90;;;;;;462240;257;28041;-74
2023/01/27 10:55:35;;;;;;;8.27;5.97;;;0.40;99.90;;;;;;478022;249;27994;-74